createdAt,value
2018-10-12T00:01:06.759Z,97426.81
2018-10-12T00:03:34.265Z,97436.22
2018-10-12T00:06:01.724Z,97438.66
2018-10-12T00:08:29.179Z,97450.52
2018-10-12T00:10:56.652Z,97448.82
2018-10-12T00:13:24.997Z,97449.53
2018-10-12T00:15:52.448Z,97459.56
2018-10-12T00:18:19.940Z,97462.73
2018-10-12T00:20:47.397Z,97466.23
2018-10-12T00:23:14.922Z,97459.34
2018-10-12T00:25:42.452Z,97459.89
2018-10-12T00:28:09.892Z,97467.73
2018-10-12T00:30:37.364Z,97473.20
2018-10-12T00:33:04.774Z,97477.21
2018-10-12T00:35:32.831Z,97474.45
2018-10-12T00:38:00.329Z,97474.33
2018-10-12T00:40:28.929Z,97473.15
2018-10-12T00:42:56.497Z,97479.77
2018-10-12T00:45:23.933Z,97483.55
2018-10-12T00:47:51.363Z,97490.89
2018-10-12T00:50:18.857Z,97479.80
2018-10-12T00:52:46.320Z,97478.22
2018-10-12T00:55:13.776Z,97481.70
2018-10-12T00:57:41.217Z,97488.53
2018-10-12T01:00:08.651Z,97484.97
2018-10-12T01:02:36.057Z,97486.41
2018-10-12T01:05:03.532Z,97493.34
2018-10-12T01:07:31.002Z,97491.59
2018-10-12T01:09:58.512Z,97496.09
2018-10-12T01:12:25.953Z,97494.51
2018-10-12T01:14:53.363Z,97492.23
2018-10-12T01:17:20.816Z,97494.16
2018-10-12T01:19:48.234Z,97485.34
2018-10-12T01:22:15.721Z,97486.64
2018-10-12T01:24:43.134Z,97486.88
2018-10-12T01:27:10.599Z,97488.23
2018-10-12T01:29:38.040Z,97492.33
2018-10-12T01:32:05.459Z,97499.70
2018-10-12T01:34:32.977Z,97502.08
2018-10-12T01:37:00.455Z,97515.19
2018-10-12T01:39:27.885Z,97509.47
2018-10-12T01:41:55.331Z,97513.70
2018-10-12T01:44:22.839Z,97525.25
2018-10-12T01:46:50.395Z,97520.55
2018-10-12T01:49:17.864Z,97518.70
2018-10-12T01:51:45.300Z,97523.68
2018-10-12T01:54:13.368Z,97512.79
2018-10-12T01:56:40.889Z,97516.19
2018-10-12T01:59:08.394Z,97520.38
2018-10-12T02:01:35.835Z,97519.11
2018-10-12T02:04:03.241Z,97520.23
2018-10-12T02:06:30.666Z,97520.51
2018-10-12T02:08:58.082Z,97515.85
2018-10-12T02:11:25.495Z,97518.28
2018-10-12T02:13:52.984Z,97524.44
2018-10-12T02:16:20.447Z,97531.30
2018-10-12T02:18:47.916Z,97532.45
2018-10-12T02:21:15.325Z,97536.12
2018-10-12T02:23:42.795Z,97536.43
2018-10-12T02:26:10.264Z,97538.35
2018-10-12T02:28:37.744Z,97544.11
2018-10-12T02:31:05.236Z,97534.62
2018-10-12T02:33:32.982Z,97543.15
2018-10-12T02:36:00.425Z,97540.33
2018-10-12T02:38:27.874Z,97540.81
2018-10-12T02:40:55.343Z,97545.80
2018-10-12T02:43:22.818Z,97553.41
2018-10-12T02:45:50.314Z,97558.81
2018-10-12T02:48:17.838Z,97560.28
2018-10-12T02:50:45.316Z,97558.06
2018-10-12T02:53:12.819Z,97551.01
2018-10-12T02:55:40.243Z,97554.69
2018-10-12T02:58:07.748Z,97554.19
2018-10-12T03:00:35.173Z,97559.92
2018-10-12T03:03:02.600Z,97559.23
2018-10-12T03:05:29.988Z,97559.41
2018-10-12T03:07:57.482Z,97552.53
2018-10-12T03:10:24.980Z,97566.82
2018-10-12T03:12:52.532Z,97566.69
2018-10-12T03:15:19.975Z,97570.85
2018-10-12T03:17:47.426Z,97573.59
2018-10-12T03:20:15.516Z,97576.57
2018-10-12T03:22:42.934Z,97570.45
2018-10-12T03:25:10.439Z,97579.59
2018-10-12T03:27:37.916Z,97589.75
2018-10-12T03:30:05.336Z,97591.80
2018-10-12T03:32:32.825Z,97596.67
2018-10-12T03:35:00.255Z,97600.64
2018-10-12T03:37:27.656Z,97604.11
2018-10-12T03:39:55.141Z,97608.14
2018-10-12T03:42:22.541Z,97611.52
2018-10-12T03:44:50.039Z,97617.80
2018-10-12T03:47:17.448Z,97619.72
2018-10-12T03:49:44.906Z,97620.53
2018-10-12T03:52:12.392Z,97622.09
2018-10-12T03:54:39.801Z,97630.47
2018-10-12T03:57:07.203Z,97643.66
2018-10-12T03:59:34.673Z,97651.57
2018-10-12T04:02:02.215Z,97655.81
2018-10-12T04:04:29.656Z,97654.41
2018-10-12T04:06:57.107Z,97657.05
2018-10-12T04:09:24.545Z,97643.90
2018-10-12T04:11:52.063Z,97649.95
2018-10-12T04:14:19.468Z,97642.25
2018-10-12T04:16:46.916Z,97643.90
2018-10-12T04:19:14.333Z,97642.43
2018-10-12T04:21:41.784Z,97643.89
2018-10-12T04:24:09.190Z,97651.00
2018-10-12T04:26:36.659Z,97657.23
2018-10-12T04:29:04.114Z,97664.54
2018-10-12T04:31:31.507Z,97661.90
2018-10-12T04:33:59.639Z,97653.46
2018-10-12T04:36:27.135Z,97658.41
2018-10-12T04:38:54.561Z,97656.30
2018-10-12T04:41:22.054Z,97667.25
2018-10-12T04:43:49.458Z,97679.65
2018-10-12T04:46:16.907Z,97672.62
2018-10-12T04:48:44.382Z,97678.81
2018-10-12T04:51:11.806Z,97679.88
2018-10-12T04:53:39.269Z,97678.86
2018-10-12T04:56:06.727Z,97679.77
2018-10-12T04:58:34.188Z,97684.47
2018-10-12T05:01:01.683Z,97691.30
2018-10-12T05:03:29.120Z,97694.65
2018-10-12T05:05:56.542Z,97688.30
2018-10-12T05:08:24.039Z,97683.16
2018-10-12T05:10:51.620Z,97688.83
2018-10-12T05:13:19.156Z,97686.71
2018-10-12T05:15:46.826Z,97682.27
2018-10-12T05:18:14.245Z,97687.55
2018-10-12T05:20:41.716Z,97688.03
2018-10-12T05:23:09.163Z,97694.03
2018-10-12T05:25:36.725Z,97697.83
2018-10-12T05:28:04.202Z,97703.84
2018-10-12T05:30:31.755Z,97707.48
2018-10-12T05:32:59.303Z,97708.28
2018-10-12T05:35:26.775Z,97720.97
2018-10-12T05:37:54.458Z,97713.30
2018-10-12T05:40:21.883Z,97720.97
2018-10-12T05:42:49.360Z,97712.09
2018-10-12T05:45:16.826Z,97712.22
2018-10-12T05:47:44.235Z,97715.72
2018-10-12T05:50:11.732Z,97715.07
2018-10-12T05:52:39.196Z,97711.50
2018-10-12T05:55:06.754Z,97711.36
2018-10-12T05:57:34.292Z,97712.29
2018-10-12T06:00:01.856Z,97722.01
2018-10-12T06:02:29.334Z,97734.75
2018-10-12T06:04:56.805Z,97731.38
2018-10-12T06:07:24.289Z,97744.08
2018-10-12T06:09:51.930Z,97736.66
2018-10-12T06:12:19.610Z,97735.08
2018-10-12T06:14:47.081Z,97740.05
2018-10-12T06:17:14.563Z,97740.72
2018-10-12T06:19:41.979Z,97749.20
2018-10-12T06:22:09.440Z,97748.89
2018-10-12T06:24:37.004Z,97751.55
2018-10-12T06:27:04.508Z,97752.70
2018-10-12T06:29:32.003Z,97753.02
2018-10-12T06:31:59.686Z,97753.31
2018-10-12T06:34:27.166Z,97755.38
2018-10-12T06:36:54.590Z,97759.83
2018-10-12T06:39:22.032Z,97765.20
2018-10-12T06:41:49.648Z,97770.38
2018-10-12T06:44:17.034Z,97768.00
2018-10-12T06:46:45.259Z,97768.28
2018-10-12T06:49:12.780Z,97766.84
2018-10-12T06:51:40.236Z,97767.03
2018-10-12T06:54:07.703Z,97768.54
2018-10-12T06:56:35.246Z,97773.59
2018-10-12T06:59:02.857Z,97776.06
2018-10-12T07:01:30.320Z,97779.09
2018-10-12T07:03:57.855Z,97782.34
2018-10-12T07:06:25.307Z,97783.11
2018-10-12T07:08:52.857Z,97776.34
2018-10-12T07:11:20.283Z,97783.72
2018-10-12T07:13:47.767Z,97791.61
2018-10-12T07:16:15.166Z,97795.99
2018-10-12T07:18:42.889Z,97796.85
2018-10-12T07:21:10.579Z,97796.84
2018-10-12T07:23:38.060Z,97808.13
2018-10-12T07:26:05.593Z,97806.22
2018-10-12T07:28:33.025Z,97814.32
2018-10-12T07:31:00.560Z,97821.12
2018-10-12T07:33:27.996Z,97817.28
2018-10-12T07:35:55.544Z,97823.85
2018-10-12T07:38:22.985Z,97823.91
2018-10-12T07:40:50.693Z,97825.93
2018-10-12T07:43:18.193Z,97821.82
2018-10-12T07:45:45.665Z,97829.02
2018-10-12T07:48:12.777Z,97837.40
2018-10-12T07:50:40.188Z,97833.08
2018-10-12T07:53:07.788Z,97832.00
2018-10-12T07:55:35.244Z,97831.42
2018-10-12T07:58:02.818Z,97836.81
2018-10-12T08:00:30.248Z,97838.98
2018-10-12T08:02:57.699Z,97837.42
2018-10-12T08:05:25.153Z,97830.90
2018-10-12T08:07:52.607Z,97833.44
2018-10-12T08:10:20.095Z,97832.16
2018-10-12T08:12:47.588Z,97831.81
2018-10-12T08:15:15.011Z,97832.67
2018-10-12T08:17:42.571Z,97831.34
2018-10-12T08:20:09.596Z,97835.16
2018-10-12T08:22:37.199Z,97837.64
2018-10-12T08:25:04.324Z,97840.05
2018-10-12T08:27:31.357Z,97837.85
2018-10-12T08:29:58.871Z,97834.68
2018-10-12T08:32:25.844Z,97843.80
2018-10-12T08:34:52.882Z,97843.53
2018-10-12T08:37:19.832Z,97845.67
2018-10-12T08:39:46.810Z,97846.45
2018-10-12T08:42:14.266Z,97847.90
2018-10-12T08:44:41.772Z,97841.52
2018-10-12T08:47:09.299Z,97843.75
2018-10-12T08:49:36.341Z,97841.61
2018-10-12T08:52:03.365Z,97843.37
2018-10-12T08:54:30.787Z,97847.09
2018-10-12T08:56:57.798Z,97845.63
2018-10-12T09:02:23.483Z,97852.13
2018-10-12T09:04:50.980Z,97855.13
2018-10-12T09:07:18.399Z,97845.92
2018-10-12T09:09:46.142Z,97847.84
2018-10-12T09:12:13.541Z,97842.06
2018-10-12T09:14:40.997Z,97843.50
2018-10-12T09:17:08.831Z,97846.25
2018-10-12T09:19:36.900Z,97847.94
2018-10-12T09:22:04.502Z,97848.43
2018-10-12T09:24:32.447Z,97848.32
2018-10-12T09:26:59.576Z,97851.42
2018-10-12T09:29:26.546Z,97850.63
2018-10-12T09:31:53.561Z,97857.14
2018-10-12T09:34:20.786Z,97851.99
2018-10-12T09:36:47.834Z,97854.45
2018-10-12T09:39:16.250Z,97849.06
2018-10-12T09:41:43.415Z,97852.84
2018-10-12T09:44:10.496Z,97843.31
2018-10-12T09:46:38.098Z,97841.35
2018-10-12T09:49:05.696Z,97845.91
2018-10-12T09:51:33.327Z,97850.55
2018-10-12T09:54:00.922Z,97845.39
2018-10-12T09:56:28.465Z,97848.81
2018-10-12T09:58:55.986Z,97845.44
2018-10-12T10:04:16.354Z,97839.98
2018-10-12T10:06:44.091Z,97840.69
2018-10-12T10:09:12.600Z,97844.71
2018-10-12T10:11:40.165Z,97845.67
2018-10-12T10:14:07.752Z,97843.59
2018-10-12T10:16:35.241Z,97836.09
2018-10-12T10:19:02.744Z,97843.53
2018-10-12T10:21:30.286Z,97840.94
2018-10-12T10:23:57.885Z,97839.34
2018-10-12T10:26:25.470Z,97841.70
2018-10-12T10:28:53.051Z,97847.33
2018-10-12T10:31:21.429Z,97840.43
2018-10-12T10:33:48.887Z,97835.16
2018-10-12T10:36:16.307Z,97834.64
2018-10-12T10:38:43.879Z,97839.86
2018-10-12T10:41:11.311Z,97827.13
2018-10-12T10:43:38.788Z,97831.22
2018-10-12T10:46:06.425Z,97822.41
2018-10-12T10:48:33.987Z,97822.91
2018-10-12T10:51:01.457Z,97820.50
2018-10-12T10:53:28.913Z,97818.94
2018-10-12T10:55:56.357Z,97817.28
2018-10-12T10:58:23.819Z,97813.17
2018-10-12T11:00:51.294Z,97817.45
2018-10-12T11:03:19.236Z,97807.89
2018-10-12T11:05:46.697Z,97814.17
2018-10-12T11:08:14.172Z,97809.94
2018-10-12T11:10:41.674Z,97808.05
2018-10-12T11:13:09.147Z,97810.64
2018-10-12T11:15:36.561Z,97817.19
2018-10-12T11:18:04.603Z,97810.52
2018-10-12T11:20:32.936Z,97799.18
2018-10-12T11:23:00.404Z,97804.12
2018-10-12T11:25:27.900Z,97805.43
2018-10-12T11:27:55.471Z,97800.70
2018-10-12T11:30:23.026Z,97792.53
2018-10-12T11:32:50.557Z,97787.59
2018-10-12T11:35:18.693Z,97793.56
2018-10-12T11:37:46.095Z,97779.43
2018-10-12T11:40:13.701Z,97783.25
2018-10-12T11:42:41.163Z,97784.57
2018-10-12T11:45:08.778Z,97784.52
2018-10-12T11:47:36.267Z,97778.88
2018-10-12T11:50:03.908Z,97776.48
2018-10-12T11:52:31.329Z,97773.75
2018-10-12T11:54:58.779Z,97780.06
2018-10-12T11:57:31.095Z,97777.19
2018-10-12T11:59:58.551Z,97772.96
2018-10-12T12:02:26.069Z,97778.31
2018-10-12T12:04:53.596Z,97774.00
2018-10-12T12:07:22.124Z,97774.34
2018-10-12T12:09:49.580Z,97766.49
2018-10-12T12:12:17.021Z,97764.23
2018-10-12T12:14:45.056Z,97765.16
2018-10-12T12:17:12.698Z,97763.45
2018-10-12T12:19:40.235Z,97761.92
2018-10-12T12:22:07.762Z,97760.68
2018-10-12T12:24:35.215Z,97755.36
2018-10-12T12:27:02.960Z,97755.86
2018-10-12T12:29:30.478Z,97754.80
2018-10-12T12:31:57.920Z,97753.30
2018-10-12T12:34:25.419Z,97752.47
2018-10-12T12:36:53.061Z,97750.20
2018-10-12T12:39:21.735Z,97740.60
2018-10-12T12:41:49.412Z,97747.98
2018-10-12T12:44:17.707Z,97742.63
2018-10-12T12:46:45.176Z,97743.22
2018-10-12T12:49:13.012Z,97740.09
2018-10-12T12:51:40.058Z,97744.15
2018-10-12T12:54:08.039Z,97742.42
2018-10-12T12:56:35.502Z,97734.24
2018-10-12T12:59:03.344Z,97739.44
2018-10-12T13:01:30.470Z,97731.64
2018-10-12T13:03:57.938Z,97743.02
2018-10-12T13:06:25.857Z,97735.76
2018-10-12T13:08:53.244Z,97737.05
2018-10-12T13:11:20.763Z,97739.24
2018-10-12T13:13:48.291Z,97738.34
2018-10-12T13:16:15.866Z,97730.20
2018-10-12T13:18:43.357Z,97732.23
2018-10-12T13:21:11.539Z,97731.59
2018-10-12T13:23:39.056Z,97729.53
2018-10-12T13:26:06.706Z,97723.39
2018-10-12T13:28:33.970Z,97723.83
2018-10-12T13:31:01.440Z,97724.98
2018-10-12T13:33:29.115Z,97720.17
2018-10-12T13:35:56.788Z,97724.11
2018-10-12T13:38:24.464Z,97721.07
2018-10-12T13:40:51.892Z,97723.50
2018-10-12T13:43:19.358Z,97725.95
2018-10-12T13:45:46.838Z,97727.83
2018-10-12T13:48:14.303Z,97726.12
2018-10-12T13:50:41.745Z,97721.95
2018-10-12T13:53:09.234Z,97727.89
2018-10-12T13:55:36.683Z,97724.07
2018-10-12T13:58:04.158Z,97718.02
2018-10-12T14:00:31.615Z,97714.48
2018-10-12T14:02:59.142Z,97719.78
2018-10-12T14:05:26.590Z,97715.05
2018-10-12T14:07:54.096Z,97712.27
2018-10-12T14:10:21.580Z,97715.69
2018-10-12T14:12:49.039Z,97713.63
2018-10-12T14:15:16.500Z,97708.53
2018-10-12T14:17:44.000Z,97706.30
2018-10-12T14:20:11.616Z,97706.78
2018-10-12T14:22:39.098Z,97709.04
2018-10-12T14:25:06.577Z,97715.07
2018-10-12T14:27:34.150Z,97710.17
2018-10-12T14:30:01.588Z,97706.71
2018-10-12T14:32:29.117Z,97706.36
2018-10-12T14:34:56.613Z,97698.80
2018-10-12T14:37:23.662Z,97695.14
2018-10-12T14:39:50.663Z,97698.47
2018-10-12T14:42:17.718Z,97698.16
2018-10-12T14:44:44.707Z,97697.31
2018-10-12T14:47:11.649Z,97696.97
2018-10-12T14:49:38.632Z,97700.48
2018-10-12T14:52:05.675Z,97696.41
2018-10-12T14:54:32.726Z,97698.91
2018-10-12T14:56:59.774Z,97697.21
2018-10-12T14:59:27.538Z,97694.30
2018-10-12T15:01:54.556Z,97698.38
2018-10-12T15:04:21.636Z,97698.09
2018-10-12T15:06:48.623Z,97693.91
2018-10-12T15:09:15.783Z,97699.03
2018-10-12T15:11:42.799Z,97693.23
2018-10-12T15:14:09.911Z,97700.70
2018-10-12T15:16:37.085Z,97699.92
2018-10-12T15:19:04.135Z,97700.45
2018-10-12T15:21:31.170Z,97699.29
2018-10-12T15:23:58.137Z,97693.25
2018-10-12T15:26:25.101Z,97693.69
2018-10-12T15:28:52.143Z,97695.77
2018-10-12T15:31:19.263Z,97694.25
2018-10-12T15:33:46.235Z,97691.48
2018-10-12T15:36:13.319Z,97692.83
2018-10-12T15:38:40.410Z,97700.00
2018-10-12T15:41:07.446Z,97694.95
2018-10-12T15:43:34.623Z,97696.02
2018-10-12T15:46:02.284Z,97693.83
2018-10-12T15:48:29.797Z,97691.97
2018-10-12T15:50:57.288Z,97684.39
2018-10-12T15:53:24.809Z,97694.34
2018-10-12T15:55:52.371Z,97691.42
2018-10-12T15:58:19.975Z,97690.50
2018-10-12T16:00:47.584Z,97697.14
2018-10-12T16:03:15.173Z,97696.39
2018-10-12T16:05:42.799Z,97696.84
2018-10-12T16:08:10.261Z,97702.18
2018-10-12T16:10:37.741Z,97698.59
2018-10-12T16:13:05.231Z,97700.05
2018-10-12T16:15:32.797Z,97706.67
2018-10-12T16:18:00.271Z,97700.42
2018-10-12T16:20:27.713Z,97707.03
2018-10-12T16:22:55.255Z,97714.39
2018-10-12T16:28:21.521Z,97721.16
2018-10-12T16:30:49.086Z,97732.72
2018-10-12T16:33:16.572Z,97731.25
2018-10-12T16:35:44.062Z,97734.50
2018-10-12T16:38:12.342Z,97734.59
2018-10-12T16:40:40.009Z,97737.48
2018-10-12T16:43:07.560Z,97738.91
2018-10-12T16:45:35.255Z,97738.97
2018-10-12T16:48:02.749Z,97740.62
2018-10-12T16:50:30.297Z,97740.02
2018-10-12T16:52:57.930Z,97741.22
2018-10-12T16:55:25.435Z,97741.12
2018-10-12T16:57:53.113Z,97744.77
2018-10-12T17:00:20.569Z,97748.81
2018-10-12T17:02:48.235Z,97752.34
2018-10-12T17:05:15.704Z,97755.64
2018-10-12T17:07:43.163Z,97762.44
2018-10-12T17:10:11.131Z,97763.86
2018-10-12T17:12:38.610Z,97764.00
2018-10-12T17:15:06.173Z,97768.34
2018-10-12T17:17:33.726Z,97768.95
2018-10-12T17:20:01.286Z,97768.87
2018-10-12T17:22:28.723Z,97777.58
2018-10-12T17:24:56.201Z,97778.73
2018-10-12T17:27:23.674Z,97786.89
2018-10-12T17:29:51.328Z,97793.23
2018-10-12T17:32:19.678Z,97798.66
2018-10-12T17:34:47.139Z,97801.50
2018-10-12T17:37:14.687Z,97800.75
2018-10-12T17:39:42.160Z,97802.84
2018-10-12T17:42:09.668Z,97806.16
2018-10-12T17:44:37.306Z,97807.17
2018-10-12T17:47:04.768Z,97814.39
2018-10-12T17:49:32.645Z,97809.70
2018-10-12T17:52:00.131Z,97814.90
2018-10-12T17:54:28.351Z,97814.41
2018-10-12T17:56:55.793Z,97814.91
2018-10-12T17:59:23.266Z,97817.78
2018-10-12T18:01:50.765Z,97818.25
2018-10-12T18:04:19.422Z,97821.41
2018-10-12T18:06:46.881Z,97822.11
2018-10-12T18:09:14.350Z,97825.06
2018-10-12T18:11:41.876Z,97819.58
2018-10-12T18:14:09.417Z,97817.12
2018-10-12T18:16:36.968Z,97826.52
2018-10-12T18:19:05.207Z,97826.31
2018-10-12T18:21:33.017Z,97825.39
2018-10-12T18:24:00.769Z,97829.34
2018-10-12T18:26:28.374Z,97833.83
2018-10-12T18:28:55.856Z,97826.47
2018-10-12T18:31:23.331Z,97836.33
2018-10-12T18:33:50.867Z,97837.66
2018-10-12T18:36:18.361Z,97836.83
2018-10-12T18:38:45.843Z,97847.56
2018-10-12T18:41:13.394Z,97841.38
2018-10-12T18:43:40.977Z,97843.91
2018-10-12T18:46:08.422Z,97850.69
2018-10-12T18:48:35.937Z,97849.84
2018-10-12T18:51:04.992Z,97852.84
2018-10-12T18:53:32.723Z,97857.83
2018-10-12T18:56:00.297Z,97855.72
2018-10-12T18:58:27.775Z,97862.03
2018-10-12T19:00:55.366Z,97858.59
2018-10-12T19:03:22.827Z,97857.25
2018-10-12T19:05:50.312Z,97858.13
2018-10-12T19:08:17.840Z,97858.87
2018-10-12T19:10:45.679Z,97857.00
2018-10-12T19:13:13.271Z,97863.87
2018-10-12T19:15:40.720Z,97861.83
2018-10-12T19:18:08.932Z,97865.62
2018-10-12T19:20:36.448Z,97863.09
2018-10-12T19:23:04.920Z,97868.41
2018-10-12T19:25:32.365Z,97876.27
2018-10-12T19:27:59.792Z,97874.39
2018-10-12T19:33:31.019Z,97871.98
2018-10-12T19:35:59.477Z,97872.30
2018-10-12T19:41:30.408Z,97879.08
2018-10-12T19:43:57.932Z,97888.66
2018-10-12T19:46:25.366Z,97882.71
2018-10-12T19:48:52.969Z,97883.75
2018-10-12T19:51:20.414Z,97883.89
2018-10-12T19:53:47.898Z,97884.10
2018-10-12T19:56:15.422Z,97888.39
2018-10-12T19:58:42.999Z,97893.00
2018-10-12T20:01:11.551Z,97890.18
2018-10-12T20:03:39.013Z,97886.69
2018-10-12T20:06:06.580Z,97887.58
2018-10-12T20:08:34.120Z,97895.52
2018-10-12T20:11:01.580Z,97898.16
2018-10-12T20:13:29.015Z,97898.89
2018-10-12T20:15:56.533Z,97906.15
2018-10-12T20:18:24.126Z,97899.88
2018-10-12T20:20:51.691Z,97907.08
2018-10-12T20:23:19.144Z,97906.39
2018-10-12T20:25:46.672Z,97903.91
2018-10-12T20:28:14.113Z,97911.42
2018-10-12T20:30:41.618Z,97915.43
2018-10-12T20:33:09.103Z,97909.56
2018-10-12T20:35:36.658Z,97914.67
2018-10-12T20:38:04.161Z,97917.30
2018-10-12T20:40:32.205Z,97916.80
2018-10-12T20:42:59.727Z,97915.09
2018-10-12T20:45:27.176Z,97914.90
2018-10-12T20:47:54.659Z,97914.41
2018-10-12T20:50:22.156Z,97913.89
2018-10-12T20:52:50.289Z,97913.79
2018-10-12T20:55:17.742Z,97915.91
2018-10-12T20:57:45.308Z,97910.20
2018-10-12T21:00:12.790Z,97906.77
2018-10-12T21:02:40.287Z,97907.83
2018-10-12T21:05:07.790Z,97913.41
2018-10-12T21:07:35.231Z,97914.38
2018-10-12T21:10:02.932Z,97911.69
2018-10-12T21:12:30.334Z,97909.36
2018-10-12T21:14:57.774Z,97905.80
2018-10-12T21:17:25.163Z,97908.83
2018-10-12T21:19:52.716Z,97906.50
2018-10-12T21:22:20.236Z,97899.56
2018-10-12T21:24:47.685Z,97903.80
2018-10-12T21:27:15.212Z,97899.62
2018-10-12T21:29:42.912Z,97903.19
2018-10-12T21:32:10.339Z,97901.09
2018-10-12T21:34:37.760Z,97895.95
2018-10-12T21:37:05.395Z,97890.71
2018-10-12T21:39:32.853Z,97891.77
2018-10-12T21:42:00.307Z,97887.21
2018-10-12T21:44:27.741Z,97888.32
2018-10-12T21:46:56.053Z,97884.17
2018-10-12T21:49:23.499Z,97889.00
2018-10-12T21:51:51.013Z,97881.17
2018-10-12T21:54:18.462Z,97882.61
2018-10-12T21:56:45.912Z,97881.81
2018-10-12T21:59:13.429Z,97874.84
2018-10-12T22:01:41.737Z,97872.83
2018-10-12T22:04:09.259Z,97871.55
2018-10-12T22:06:36.697Z,97859.35
2018-10-12T22:09:04.255Z,97858.23
2018-10-12T22:11:31.726Z,97856.44
2018-10-12T22:13:59.272Z,97855.84
2018-10-12T22:16:26.651Z,97856.33
2018-10-12T22:18:54.133Z,97852.97
2018-10-12T22:21:21.535Z,97857.23
2018-10-12T22:23:49.099Z,97854.36
2018-10-12T22:26:16.668Z,97856.09
2018-10-12T22:28:44.156Z,97858.56
2018-10-12T22:31:12.630Z,97853.30
2018-10-12T22:33:41.383Z,97848.86
2018-10-12T22:36:08.886Z,97853.26
2018-10-12T22:38:36.400Z,97853.59
2018-10-12T22:41:03.949Z,97848.86
2018-10-12T22:43:31.465Z,97852.75
2018-10-12T22:45:58.893Z,97851.34
2018-10-12T22:48:26.352Z,97844.43
2018-10-12T22:50:53.794Z,97844.31
2018-10-12T22:53:21.594Z,97844.08
2018-10-12T22:55:49.225Z,97842.62
2018-10-12T22:58:16.708Z,97851.75
2018-10-12T23:00:44.136Z,97846.94
2018-10-12T23:03:11.622Z,97848.76
2018-10-12T23:05:39.079Z,97836.45
2018-10-12T23:08:06.675Z,97837.89
2018-10-12T23:10:34.137Z,97843.08
2018-10-12T23:13:01.739Z,97846.31
2018-10-12T23:15:29.134Z,97845.41
2018-10-12T23:17:56.583Z,97846.06
2018-10-12T23:20:24.028Z,97845.08
2018-10-12T23:22:51.457Z,97841.17
2018-10-12T23:25:19.996Z,97842.80
2018-10-12T23:27:47.412Z,97840.48
2018-10-12T23:30:14.882Z,97838.73
2018-10-12T23:32:42.293Z,97843.17
2018-10-12T23:35:09.762Z,97844.27
2018-10-12T23:37:37.205Z,97847.72
2018-10-12T23:40:04.605Z,97850.34
2018-10-12T23:42:32.101Z,97843.71
2018-10-12T23:44:59.498Z,97849.85
2018-10-12T23:47:26.999Z,97847.88
2018-10-12T23:49:54.414Z,97843.10
2018-10-12T23:52:21.845Z,97847.26
2018-10-12T23:57:22.144Z,97845.52
2018-10-12T23:59:49.628Z,97846.77
